createdAt,value
2023-01-27T00:01:25.825Z,101677.53
2023-01-27T00:03:56.190Z,101679.56
2023-01-27T00:06:26.070Z,101679.78
2023-01-27T00:08:55.750Z,101674.81
2023-01-27T00:11:38.121Z,101666.88
2023-01-27T00:14:10.242Z,101673.88
2023-01-27T00:16:42.450Z,101670.69
2023-01-27T00:19:12.120Z,101662.56
2023-01-27T00:22:00.469Z,101662.56
2023-01-27T00:24:39.316Z,101656.69
2023-01-27T00:27:11.076Z,101660.06
2023-01-27T00:29:41.887Z,101660.34
2023-01-27T00:32:28.676Z,101665.34
2023-01-27T00:34:59.249Z,101656.94
2023-01-27T00:37:28.970Z,101655.09
2023-01-27T00:39:58.632Z,101654.41
2023-01-27T00:42:29.282Z,101662.13
2023-01-27T00:45:11.427Z,101664.88
2023-01-27T00:47:44.728Z,101666.41
2023-01-27T00:50:14.975Z,101673.88
2023-01-27T00:52:44.758Z,101673.38
2023-01-27T00:55:15.999Z,101678.81
2023-01-27T00:57:46.920Z,101676.09
2023-01-27T01:00:17.537Z,101679.25
2023-01-27T01:02:51.532Z,101686.00
2023-01-27T01:05:21.251Z,101684.13
2023-01-27T01:07:50.890Z,101691.78
2023-01-27T01:10:20.575Z,101696.97
2023-01-27T01:12:50.173Z,101695.34
2023-01-27T01:15:21.648Z,101703.94
2023-01-27T01:17:53.937Z,101691.03
2023-01-27T01:20:24.851Z,101693.91
2023-01-27T01:22:54.576Z,101697.31
2023-01-27T01:25:24.205Z,101703.00
2023-01-27T01:27:54.056Z,101702.78
2023-01-27T01:30:27.549Z,101713.63
2023-01-27T01:33:00.404Z,101703.88
2023-01-27T01:35:30.063Z,101707.78
2023-01-27T01:38:00.777Z,101704.78
2023-01-27T01:40:30.431Z,101703.41
2023-01-27T01:43:01.120Z,101706.09
2023-01-27T01:45:46.023Z,101705.63
2023-01-27T01:48:20.994Z,101703.16
2023-01-27T01:50:53.918Z,101710.81
2023-01-27T01:53:27.355Z,101706.03
2023-01-27T01:55:57.142Z,101710.34
2023-01-27T01:58:30.147Z,101705.38
2023-01-27T02:01:00.795Z,101714.16
2023-01-27T02:03:43.869Z,101712.56
2023-01-27T02:06:14.570Z,101710.09
2023-01-27T02:08:45.347Z,101708.28
2023-01-27T02:11:15.349Z,101705.09
2023-01-27T02:13:45.470Z,101620.09
2023-01-27T02:16:15.859Z,101707.81
2023-01-27T02:18:48.447Z,101701.84
2023-01-27T02:21:18.066Z,101709.56
2023-01-27T02:23:55.812Z,101712.50
2023-01-27T02:26:40.203Z,101713.63
2023-01-27T02:29:11.451Z,101709.13
2023-01-27T02:31:41.769Z,101715.00
2023-01-27T02:34:13.017Z,101707.94
2023-01-27T02:36:45.072Z,101708.66
2023-01-27T02:39:16.259Z,101700.97
2023-01-27T02:41:52.025Z,101700.97
2023-01-27T02:44:22.725Z,101698.91
2023-01-27T02:46:52.649Z,101702.50
2023-01-27T02:49:22.595Z,101704.28
2023-01-27T02:51:52.615Z,101707.69
2023-01-27T02:54:22.609Z,101719.00
2023-01-27T02:56:56.008Z,101719.97
2023-01-27T02:59:28.230Z,101728.19
2023-01-27T03:02:02.031Z,101723.47
2023-01-27T03:04:32.019Z,101729.09
2023-01-27T03:07:04.030Z,101723.63
2023-01-27T03:09:35.977Z,101723.63
2023-01-27T03:12:23.321Z,101721.34
2023-01-27T03:15:07.152Z,101724.97
2023-01-27T03:17:49.488Z,101724.06
2023-01-27T03:20:22.341Z,101733.94
2023-01-27T03:22:52.428Z,101735.81
2023-01-27T03:25:27.609Z,101734.47
2023-01-27T03:28:02.390Z,101741.72
2023-01-27T03:30:52.425Z,101740.34
2023-01-27T03:33:30.484Z,101690.56
2023-01-27T03:36:18.679Z,101732.63
2023-01-27T03:39:04.637Z,101735.38
2023-01-27T03:41:46.761Z,101734.31
2023-01-27T03:44:32.043Z,101735.09
2023-01-27T03:47:01.778Z,101738.19
2023-01-27T03:49:32.255Z,101737.78
2023-01-27T03:52:01.966Z,101738.69
2023-01-27T03:54:31.682Z,101739.63
2023-01-27T03:57:06.564Z,101736.91
2023-01-27T03:59:40.199Z,101732.66
2023-01-27T04:02:22.755Z,101742.59
2023-01-27T04:05:04.893Z,101744.38
2023-01-27T04:07:37.561Z,101740.97
2023-01-27T04:10:07.593Z,101740.72
2023-01-27T04:12:34.636Z,101745.44
2023-01-27T04:15:07.364Z,101747.22
2023-01-27T04:17:41.169Z,101739.25
2023-01-27T04:20:11.720Z,101745.53
2023-01-27T04:22:41.433Z,101747.09
2023-01-27T04:25:13.290Z,101747.09
2023-01-27T04:27:43.808Z,101753.38
2023-01-27T04:30:16.772Z,101758.38
2023-01-27T04:32:46.459Z,101756.59
2023-01-27T04:35:17.174Z,101757.97
2023-01-27T04:37:46.832Z,101766.09
2023-01-27T04:40:24.207Z,101764.72
2023-01-27T04:42:55.836Z,101766.81
2023-01-27T04:45:37.292Z,101760.72
2023-01-27T04:48:21.373Z,101764.78
2023-01-27T04:50:51.318Z,101773.81
2023-01-27T04:53:21.152Z,101776.53
2023-01-27T04:55:51.726Z,101770.88
2023-01-27T04:58:22.282Z,101773.97
2023-01-27T05:00:54.852Z,101770.81
2023-01-27T05:03:24.610Z,101781.88
2023-01-27T05:05:54.307Z,101778.28
2023-01-27T05:08:24.090Z,101787.53
2023-01-27T05:10:53.799Z,101790.03
2023-01-27T05:13:23.710Z,101793.22
2023-01-27T05:16:18.104Z,101795.91
2023-01-27T05:18:56.335Z,101800.44
2023-01-27T05:21:28.392Z,101801.34
2023-01-27T05:24:00.325Z,101792.03
2023-01-27T05:26:30.971Z,101804.03
2023-01-27T05:29:01.296Z,101806.06
2023-01-27T05:31:34.280Z,101804.28
2023-01-27T05:34:07.622Z,101811.31
2023-01-27T05:36:37.304Z,101804.13
2023-01-27T05:39:13.066Z,101808.88
2023-01-27T05:41:42.975Z,101810.50
2023-01-27T05:44:13.943Z,101815.47
2023-01-27T05:46:46.204Z,101815.47
2023-01-27T05:49:18.216Z,101811.38
2023-01-27T05:51:47.991Z,101824.03
2023-01-27T05:54:17.671Z,101825.63
2023-01-27T05:56:56.382Z,101821.56
2023-01-27T05:59:26.096Z,101831.50
2023-01-27T06:01:58.388Z,101831.72
2023-01-27T06:04:28.093Z,101837.59
2023-01-27T06:06:57.941Z,101842.59
2023-01-27T06:09:27.584Z,101837.59
2023-01-27T06:11:57.168Z,101841.63
2023-01-27T06:14:26.992Z,101843.00
2023-01-27T06:17:01.144Z,101848.88
2023-01-27T06:19:30.819Z,101848.38
2023-01-27T06:22:00.630Z,101847.50
2023-01-27T06:24:32.789Z,101849.31
2023-01-27T06:27:04.335Z,101853.38
2023-01-27T06:29:34.176Z,101848.38
2023-01-27T06:32:11.319Z,101843.41
2023-01-27T06:34:41.343Z,101849.50
2023-01-27T06:37:12.937Z,101847.72
2023-01-27T06:39:42.750Z,101850.00
2023-01-27T06:42:15.410Z,101851.59
2023-01-27T06:44:48.413Z,101856.13
2023-01-27T06:47:21.914Z,101859.31
2023-01-27T06:49:51.776Z,101856.81
2023-01-27T06:52:21.379Z,101856.59
2023-01-27T06:54:52.393Z,101861.38
2023-01-27T06:57:22.412Z,101858.88
2023-01-27T06:59:52.403Z,101868.19
2023-01-27T07:02:28.015Z,101879.31
2023-01-27T07:04:57.660Z,101878.59
2023-01-27T07:07:29.750Z,101875.00
2023-01-27T07:09:59.552Z,101883.38
2023-01-27T07:12:29.429Z,101886.31
2023-01-27T07:14:59.559Z,101889.72
2023-01-27T07:17:31.849Z,101892.00
2023-01-27T07:20:01.460Z,101897.88
2023-01-27T07:22:31.215Z,101899.72
2023-01-27T07:25:00.902Z,101900.41
2023-01-27T07:27:31.425Z,101906.06
2023-01-27T07:30:01.422Z,101909.00
2023-01-27T07:32:33.742Z,101916.72
2023-01-27T07:35:14.770Z,101916.72
2023-01-27T07:37:46.727Z,101922.34
2023-01-27T07:40:16.758Z,101923.06
2023-01-27T07:42:46.505Z,101929.16
2023-01-27T07:45:17.968Z,101926.88
2023-01-27T07:47:50.330Z,101923.94
2023-01-27T07:50:20.130Z,101930.00
2023-01-27T07:52:49.939Z,101930.91
2023-01-27T07:55:20.007Z,101941.78
2023-01-27T07:57:49.684Z,101942.88
2023-01-27T08:00:29.336Z,101943.09
2023-01-27T08:03:02.087Z,101940.16
2023-01-27T08:05:32.314Z,101944.69
2023-01-27T08:08:06.400Z,101949.19
2023-01-27T08:10:36.005Z,101956.22
2023-01-27T08:13:07.256Z,101953.47
2023-01-27T08:15:37.001Z,101962.47
2023-01-27T08:18:09.260Z,101957.72
2023-01-27T08:20:39.195Z,101961.53
2023-01-27T08:23:08.904Z,101966.75
2023-01-27T08:25:38.510Z,101961.13
2023-01-27T08:28:08.316Z,101969.00
2023-01-27T08:30:38.002Z,101977.84
2023-01-27T08:33:11.016Z,101976.97
2023-01-27T08:35:44.664Z,101973.75
2023-01-27T08:38:15.174Z,101983.72
2023-01-27T08:40:45.516Z,101986.44
2023-01-27T08:43:16.573Z,101983.06
2023-01-27T08:45:47.182Z,101988.03
2023-01-27T08:48:22.862Z,101981.03
2023-01-27T08:50:53.149Z,101991.66
2023-01-27T08:53:24.783Z,101995.03
2023-01-27T08:55:56.562Z,102001.19
2023-01-27T08:58:26.946Z,101996.44
2023-01-27T09:00:56.707Z,101995.34
2023-01-27T09:03:31.753Z,102000.28
2023-01-27T09:06:03.625Z,102003.69
2023-01-27T09:08:33.998Z,102003.63
2023-01-27T09:11:03.816Z,102000.47
2023-01-27T09:13:33.599Z,102007.47
2023-01-27T09:16:03.549Z,102010.38
2023-01-27T09:18:36.101Z,102015.34
2023-01-27T09:21:07.143Z,102016.72
2023-01-27T09:23:37.981Z,102021.69
2023-01-27T09:26:08.173Z,102016.22
2023-01-27T09:28:38.041Z,102022.28
2023-01-27T09:31:11.220Z,102019.78
2023-01-27T09:33:43.578Z,102032.91
2023-01-27T09:36:16.837Z,102020.72
2023-01-27T09:38:49.035Z,102015.53
2023-01-27T09:41:25.269Z,102018.72
2023-01-27T09:44:14.497Z,102025.69
2023-01-27T09:47:01.657Z,102019.16
2023-01-27T09:49:54.099Z,102025.94
2023-01-27T09:52:46.909Z,102025.28
2023-01-27T09:55:20.542Z,102026.59
2023-01-27T09:57:55.621Z,102028.84
2023-01-27T10:00:33.394Z,102026.97
2023-01-27T10:03:11.565Z,102025.16
2023-01-27T10:05:56.414Z,102026.03
2023-01-27T10:08:43.858Z,102021.72
2023-01-27T10:11:19.197Z,102027.19
2023-01-27T10:14:01.748Z,102032.38
2023-01-27T10:16:42.746Z,102030.28
2023-01-27T10:19:35.869Z,102032.09
2023-01-27T10:22:14.241Z,102021.41
2023-01-27T10:24:53.968Z,102022.38
2023-01-27T10:27:24.957Z,101976.78
2023-01-27T10:29:59.623Z,102008.53
2023-01-27T10:32:30.499Z,102007.88
2023-01-27T10:35:10.648Z,102027.84
2023-01-27T10:37:49.770Z,102018.84
2023-01-27T10:40:22.764Z,102026.97
2023-01-27T10:42:55.761Z,102022.00
2023-01-27T10:45:29.732Z,102034.75
2023-01-27T10:48:05.115Z,102038.09
2023-01-27T10:50:37.318Z,102034.75
2023-01-27T10:53:15.118Z,102034.97
2023-01-27T10:55:49.572Z,102035.22
2023-01-27T10:58:21.866Z,102028.00
2023-01-27T11:03:47.375Z,102047.84
2023-01-27T11:06:20.698Z,102049.63
2023-01-27T11:08:55.609Z,102045.31
2023-01-27T11:11:39.490Z,102045.16
2023-01-27T11:14:14.978Z,102043.13
2023-01-27T11:16:47.089Z,102038.63
2023-01-27T11:19:19.795Z,102044.28
2023-01-27T11:22:06.292Z,102042.69
2023-01-27T11:24:45.560Z,102041.34
2023-01-27T11:27:19.848Z,102041.78
2023-01-27T11:29:53.599Z,102041.78
2023-01-27T11:32:28.921Z,102043.81
2023-01-27T11:35:03.212Z,102036.78
2023-01-27T11:37:40.408Z,102037.72
2023-01-27T11:40:20.882Z,102040.63
2023-01-27T11:42:52.050Z,102043.13
2023-01-27T11:45:23.136Z,102046.53
2023-01-27T11:47:57.203Z,102041.28
2023-01-27T11:50:30.702Z,102037.47
2023-01-27T11:53:06.492Z,102034.53
2023-01-27T11:55:41.115Z,102034.53
2023-01-27T11:58:16.692Z,102035.66
2023-01-27T12:00:48.159Z,102032.91
2023-01-27T12:03:21.955Z,102010.16
2023-01-27T12:05:56.679Z,102037.81
2023-01-27T12:08:39.821Z,102029.69
2023-01-27T12:11:24.354Z,102030.09
2023-01-27T12:14:10.229Z,102025.28
2023-01-27T12:16:47.893Z,102025.50
2023-01-27T12:19:23.751Z,102035.28
2023-01-27T12:21:59.715Z,102025.56
2023-01-27T12:24:34.037Z,102019.72
2023-01-27T12:27:11.429Z,102019.22
2023-01-27T12:29:47.261Z,102023.75
2023-01-27T12:32:20.625Z,102013.13
2023-01-27T12:34:56.334Z,102017.22
2023-01-27T12:37:29.330Z,102014.72
2023-01-27T12:40:02.449Z,102010.41
2023-01-27T12:42:47.396Z,102011.53
2023-01-27T12:45:25.431Z,102016.72
2023-01-27T12:48:05.003Z,101963.06
2023-01-27T12:50:35.526Z,102019.91
2023-01-27T12:53:29.832Z,102013.31
2023-01-27T12:56:01.760Z,102010.56
2023-01-27T12:58:52.754Z,102016.25
2023-01-27T13:01:34.040Z,102009.75
2023-01-27T13:04:09.415Z,102014.03
2023-01-27T13:06:58.976Z,102006.56
2023-01-27T13:09:30.870Z,102009.03
2023-01-27T13:12:02.089Z,102012.03
2023-01-27T13:14:35.556Z,102014.81
2023-01-27T13:17:05.123Z,102017.56
2023-01-27T13:19:44.721Z,102017.34
2023-01-27T13:22:20.161Z,102023.03
2023-01-27T13:24:55.829Z,102017.16
2023-01-27T13:27:28.318Z,102019.44
2023-01-27T13:30:00.771Z,102016.22
2023-01-27T13:32:51.185Z,102016.72
2023-01-27T13:35:27.726Z,102012.84
2023-01-27T13:38:05.075Z,102016.94
2023-01-27T13:40:37.507Z,102019.84
2023-01-27T13:43:12.625Z,102026.19
2023-01-27T13:45:43.813Z,102023.47
2023-01-27T13:48:17.346Z,102018.53
2023-01-27T13:50:52.771Z,102022.84
2023-01-27T13:53:22.923Z,102031.47
2023-01-27T13:55:59.515Z,102027.44
2023-01-27T13:58:34.565Z,102032.41
2023-01-27T14:01:12.220Z,102039.00
2023-01-27T14:03:50.400Z,102039.72
2023-01-27T14:06:30.487Z,102030.84
2023-01-27T14:09:10.903Z,102048.06
2023-01-27T14:11:44.976Z,102045.75
2023-01-27T14:14:25.794Z,102038.94
2023-01-27T14:17:03.042Z,102045.28
2023-01-27T14:19:40.381Z,102049.84
2023-01-27T14:22:17.283Z,102045.81
2023-01-27T14:24:50.293Z,102046.47
2023-01-27T14:27:22.844Z,102048.25
2023-01-27T14:29:56.830Z,102055.69
2023-01-27T14:32:30.146Z,102053.16
2023-01-27T14:35:10.018Z,102051.38
2023-01-27T14:37:48.512Z,102060.22
2023-01-27T14:40:23.894Z,102062.06
2023-01-27T14:43:06.508Z,102065.94
2023-01-27T14:45:38.616Z,102068.88
2023-01-27T14:48:18.875Z,102065.94
2023-01-27T14:50:52.832Z,102072.47
2023-01-27T14:53:32.603Z,102068.84
2023-01-27T14:56:07.513Z,102069.97
2023-01-27T14:58:45.445Z,102041.38
2023-01-27T15:01:24.851Z,102077.47
2023-01-27T15:04:05.360Z,102076.81
2023-01-27T15:06:39.067Z,102085.66
2023-01-27T15:09:17.134Z,102084.28
2023-01-27T15:11:54.724Z,102077.50
2023-01-27T15:14:41.825Z,102075.44
2023-01-27T15:17:18.352Z,102077.69
2023-01-27T15:20:03.144Z,102079.31
2023-01-27T15:22:45.278Z,102074.56
2023-01-27T15:25:29.758Z,102081.56
2023-01-27T15:28:00.199Z,102089.25
2023-01-27T15:30:30.726Z,102093.34
2023-01-27T15:33:00.664Z,102094.50
2023-01-27T15:35:38.091Z,102104.69
2023-01-27T15:38:22.676Z,102087.94
2023-01-27T15:41:02.087Z,102103.34
2023-01-27T15:43:36.125Z,102107.88
2023-01-27T15:46:26.822Z,102111.28
2023-01-27T15:48:57.861Z,102114.91
2023-01-27T15:51:36.397Z,102085.06
2023-01-27T15:54:06.856Z,102121.44
2023-01-27T15:56:50.924Z,102111.06
2023-01-27T15:59:23.900Z,102124.16
2023-01-27T16:02:20.213Z,102125.50
2023-01-27T16:05:08.527Z,102122.81
2023-01-27T16:07:39.968Z,102135.47
2023-01-27T16:10:16.816Z,102140.22
2023-01-27T16:12:49.843Z,102140.22
2023-01-27T16:15:24.007Z,102144.03
2023-01-27T16:18:04.370Z,102134.09
2023-01-27T16:20:36.000Z,102142.72
2023-01-27T16:23:11.256Z,102140.69
2023-01-27T16:25:44.117Z,102137.28
2023-01-27T16:28:21.162Z,102139.13
2023-01-27T16:31:04.792Z,102140.91
2023-01-27T16:33:36.904Z,102149.50
2023-01-27T16:36:09.148Z,102149.75
2023-01-27T16:38:40.523Z,102140.94
2023-01-27T16:41:21.033Z,102147.75
2023-01-27T16:43:56.793Z,102149.31
2023-01-27T16:46:31.500Z,102150.22
2023-01-27T16:49:01.755Z,102158.34
2023-01-27T16:51:32.455Z,102166.94
2023-01-27T16:54:05.111Z,102158.56
2023-01-27T16:56:36.549Z,102163.53
2023-01-27T16:59:10.276Z,102165.38
2023-01-27T17:01:42.697Z,102169.22
2023-01-27T17:04:20.136Z,102176.66
2023-01-27T17:06:50.965Z,102169.88
2023-01-27T17:09:36.600Z,102176.66
2023-01-27T17:12:07.886Z,102176.41
2023-01-27T17:14:42.736Z,102181.63
2023-01-27T17:17:22.625Z,102185.25
2023-01-27T17:19:54.841Z,102182.31
2023-01-27T17:22:26.088Z,102188.41
2023-01-27T17:24:57.989Z,102187.28
2023-01-27T17:27:29.531Z,102183.22
2023-01-27T17:30:05.310Z,102198.34
2023-01-27T17:32:38.461Z,102185.00
2023-01-27T17:35:09.516Z,102187.97
2023-01-27T17:37:47.662Z,102200.41
2023-01-27T17:40:18.733Z,102198.13
2023-01-27T17:42:50.574Z,102201.28
2023-01-27T17:45:30.505Z,102202.41
2023-01-27T17:48:04.847Z,102203.53
2023-01-27T17:50:37.687Z,102210.34
2023-01-27T17:53:22.381Z,102201.06
2023-01-27T17:55:51.965Z,102211.00
2023-01-27T17:58:25.343Z,102212.13
2023-01-27T18:00:58.891Z,102214.16
2023-01-27T18:03:29.804Z,102208.72
2023-01-27T18:06:00.120Z,102224.31
2023-01-27T18:08:29.949Z,102222.97
2023-01-27T18:11:11.221Z,102226.13
2023-01-27T18:13:43.178Z,102228.16
2023-01-27T18:16:24.583Z,102228.81
2023-01-27T18:18:54.780Z,102231.31
2023-01-27T18:21:26.149Z,102226.56
2023-01-27T18:23:57.425Z,102236.03
2023-01-27T18:26:37.243Z,102235.38
2023-01-27T18:29:18.717Z,102241.25
2023-01-27T18:31:52.791Z,102238.53
2023-01-27T18:34:35.577Z,102231.75
2023-01-27T18:37:24.087Z,102230.16
2023-01-27T18:39:53.749Z,102236.75
2023-01-27T18:42:26.112Z,102241.44
2023-01-27T18:44:56.097Z,102239.66
2023-01-27T18:47:36.502Z,102240.78
2023-01-27T18:50:18.238Z,102238.31
2023-01-27T18:52:48.977Z,102245.97
2023-01-27T18:55:20.389Z,102242.38
2023-01-27T18:57:51.363Z,102247.13
2023-01-27T19:00:22.585Z,102236.28
2023-01-27T19:02:56.395Z,102246.22
2023-01-27T19:05:27.296Z,102254.59
2023-01-27T19:07:57.071Z,102245.78
2023-01-27T19:10:28.507Z,102245.31
2023-01-27T19:13:07.248Z,102239.66
2023-01-27T19:15:37.904Z,102239.44
2023-01-27T19:18:27.881Z,102238.31
2023-01-27T19:20:57.605Z,102235.34
2023-01-27T19:23:28.767Z,102243.94
2023-01-27T19:26:00.037Z,102234.22
2023-01-27T19:28:38.808Z,102235.81
2023-01-27T19:31:09.336Z,102228.59
2023-01-27T19:33:45.180Z,102232.63
2023-01-27T19:36:26.870Z,102241.66
2023-01-27T19:39:00.984Z,102242.56
2023-01-27T19:41:30.928Z,102237.59
2023-01-27T19:44:00.705Z,102242.81
2023-01-27T19:46:30.358Z,102248.03
2023-01-27T19:49:02.588Z,102247.56
2023-01-27T19:51:32.787Z,102251.38
2023-01-27T19:54:05.474Z,102246.69
2023-01-27T19:56:35.182Z,102251.38
2023-01-27T19:59:09.622Z,102255.69
2023-01-27T20:01:39.312Z,102258.41
2023-01-27T20:04:11.853Z,102263.88
2023-01-27T20:06:41.820Z,102257.50
2023-01-27T20:09:13.097Z,102262.03
2023-01-27T20:11:45.770Z,102256.84
2023-01-27T20:14:16.472Z,102259.09
2023-01-27T20:16:46.320Z,102263.16
2023-01-27T20:19:19.739Z,102253.88
2023-01-27T20:21:49.990Z,102254.34
2023-01-27T20:24:20.399Z,102261.78
2023-01-27T20:26:50.157Z,102259.75
2023-01-27T20:29:19.836Z,102261.09
2023-01-27T20:31:49.794Z,102261.78
2023-01-27T20:34:22.341Z,102270.81
2023-01-27T20:36:52.291Z,102269.69
2023-01-27T20:39:22.054Z,102266.78
2023-01-27T20:41:52.655Z,102271.03
2023-01-27T20:44:28.744Z,102272.88
2023-01-27T20:47:00.779Z,102264.72
2023-01-27T20:49:33.002Z,102268.13
2023-01-27T20:52:08.551Z,102278.47
2023-01-27T20:54:38.235Z,102275.78
2023-01-27T20:57:10.720Z,102277.78
2023-01-27T20:59:40.328Z,102279.13
2023-01-27T21:02:12.547Z,102276.41
2023-01-27T21:04:51.443Z,102278.03
2023-01-27T21:07:21.232Z,102285.47
2023-01-27T21:09:51.379Z,102289.97
2023-01-27T21:12:21.033Z,102285.00
2023-01-27T21:14:50.778Z,102286.81
2023-01-27T21:17:20.510Z,102273.25
2023-01-27T21:19:52.833Z,102277.75
2023-01-27T21:22:22.762Z,102272.97
2023-01-27T21:24:52.445Z,102269.13
2023-01-27T21:27:22.728Z,102275.00
2023-01-27T21:29:53.007Z,102275.00
2023-01-27T21:32:22.946Z,102281.53
2023-01-27T21:34:56.955Z,102271.78
2023-01-27T21:37:26.734Z,102277.22
2023-01-27T21:39:56.305Z,102272.47
2023-01-27T21:42:38.402Z,102265.03
2023-01-27T21:45:17.966Z,102263.91
2023-01-27T21:47:47.701Z,102259.84
2023-01-27T21:50:20.268Z,102254.91
2023-01-27T21:52:52.940Z,102261.84
2023-01-27T21:55:23.152Z,102267.97
2023-01-27T21:57:56.210Z,102270.00
2023-01-27T22:00:26.970Z,102267.28
2023-01-27T22:02:57.337Z,102269.50
2023-01-27T22:05:30.350Z,102264.31
2023-01-27T22:08:01.979Z,102267.03
2023-01-27T22:10:38.212Z,102255.09
2023-01-27T22:13:09.712Z,102260.06
2023-01-27T22:15:41.010Z,102256.91
2023-01-27T22:18:13.473Z,102246.53
2023-01-27T22:20:45.675Z,102243.38
2023-01-27T22:23:19.072Z,102242.72
2023-01-27T22:25:50.863Z,102239.81
2023-01-27T22:28:22.326Z,102233.00
2023-01-27T22:30:52.061Z,102237.25
2023-01-27T22:33:22.035Z,102238.84
2023-01-27T22:36:00.935Z,102232.28
2023-01-27T22:38:30.727Z,102235.69
2023-01-27T22:41:01.252Z,102232.78
2023-01-27T22:43:31.041Z,102217.19
2023-01-27T22:46:02.563Z,102219.25
2023-01-27T22:48:32.370Z,102218.78
2023-01-27T22:51:08.085Z,102215.19
2023-01-27T22:53:37.688Z,102217.44
2023-01-27T22:56:07.706Z,102221.25
2023-01-27T22:58:37.436Z,102217.66
2023-01-27T23:01:08.011Z,102230.09
2023-01-27T23:03:37.671Z,102205.25
2023-01-27T23:06:10.879Z,102225.53
2023-01-27T23:08:40.554Z,102224.84
2023-01-27T23:11:10.481Z,102230.25
2023-01-27T23:13:40.467Z,102230.72
2023-01-27T23:16:11.818Z,102229.38
2023-01-27T23:18:41.602Z,102220.78
2023-01-27T23:21:14.262Z,102226.22
2023-01-27T23:23:45.285Z,102223.25
2023-01-27T23:26:25.656Z,102227.09
2023-01-27T23:28:57.414Z,102229.81
2023-01-27T23:31:27.958Z,102237.25
2023-01-27T23:34:00.088Z,102236.59
2023-01-27T23:36:32.387Z,102237.97
2023-01-27T23:39:02.147Z,102248.13
2023-01-27T23:41:31.826Z,102205.41
2023-01-27T23:44:01.551Z,102244.78
2023-01-27T23:46:31.350Z,102248.81
2023-01-27T23:49:01.025Z,102246.13
2023-01-27T23:51:33.260Z,102251.09
2023-01-27T23:54:03.183Z,102246.09
2023-01-27T23:56:32.962Z,102245.19
2023-01-27T23:59:02.907Z,102245.63
